createdAt,value
2019-01-27T00:00:39.548Z,4.80
2019-01-27T00:03:09.010Z,4.93
2019-01-27T00:05:38.687Z,4.30
2019-01-27T00:08:13.445Z,3.90
2019-01-27T00:10:39.317Z,4.23
2019-01-27T00:13:08.830Z,4.37
2019-01-27T00:15:38.504Z,3.87
2019-01-27T00:18:07.976Z,4.10
2019-01-27T00:20:37.483Z,3.90
2019-01-27T00:23:06.983Z,3.60
2019-01-27T00:25:36.474Z,3.67
2019-01-27T00:28:06.206Z,3.20
2019-01-27T00:30:35.793Z,3.20
2019-01-27T00:33:05.271Z,3.30
2019-01-27T00:35:35.082Z,3.13
2019-01-27T00:38:04.694Z,2.87
2019-01-27T00:40:34.266Z,3.00
2019-01-27T00:43:03.757Z,3.03
2019-01-27T00:45:33.298Z,3.00
2019-01-27T00:48:02.794Z,2.90
2019-01-27T00:50:32.288Z,2.80
2019-01-27T00:53:01.787Z,2.93
2019-01-27T00:55:31.311Z,2.80
2019-01-27T00:58:00.774Z,2.80
2019-01-27T01:00:31.031Z,2.60
2019-01-27T01:03:00.543Z,2.57
2019-01-27T01:05:30.054Z,2.70
2019-01-27T01:07:59.565Z,2.80
2019-01-27T01:10:29.026Z,2.87
2019-01-27T01:12:58.573Z,2.60
2019-01-27T01:15:28.050Z,2.70
2019-01-27T01:17:57.547Z,2.80
2019-01-27T01:20:27.045Z,2.93
2019-01-27T01:22:56.854Z,2.83
2019-01-27T01:25:26.450Z,2.90
2019-01-27T01:27:55.951Z,2.60
2019-01-27T01:30:30.354Z,2.70
2019-01-27T01:33:00.123Z,2.90
2019-01-27T01:35:29.656Z,2.90
2019-01-27T01:37:59.268Z,2.90
2019-01-27T01:40:28.805Z,2.63
2019-01-27T01:42:58.293Z,2.47
2019-01-27T01:45:29.802Z,2.70
2019-01-27T01:47:59.411Z,3.27
2019-01-27T01:50:29.015Z,2.73
2019-01-27T01:52:58.660Z,2.80
2019-01-27T01:55:28.147Z,2.73
2019-01-27T01:57:57.682Z,2.70
2019-01-27T02:00:28.219Z,2.93
2019-01-27T02:02:57.718Z,2.77
2019-01-27T02:05:27.241Z,2.60
2019-01-27T02:07:56.765Z,2.50
2019-01-27T02:10:26.351Z,2.70
2019-01-27T02:12:55.925Z,2.83
2019-01-27T02:16:03.342Z,2.70
2019-01-27T02:18:33.063Z,2.70
2019-01-27T02:21:02.799Z,2.73
2019-01-27T02:23:32.279Z,2.80
2019-01-27T02:26:01.805Z,2.63
2019-01-27T02:28:31.289Z,2.97
2019-01-27T02:31:00.788Z,2.77
2019-01-27T02:33:30.259Z,2.77
2019-01-27T02:35:59.745Z,2.77
2019-01-27T02:38:29.220Z,2.83
2019-01-27T02:40:58.718Z,2.80
2019-01-27T02:43:28.230Z,2.70
2019-01-27T02:45:57.716Z,2.63
2019-01-27T02:48:27.285Z,2.60
2019-01-27T02:50:56.734Z,2.90
2019-01-27T02:53:26.217Z,3.10
2019-01-27T02:55:55.735Z,2.90
2019-01-27T02:58:25.286Z,3.00
2019-01-27T03:00:54.849Z,3.17
2019-01-27T03:03:24.351Z,3.10
2019-01-27T03:06:02.047Z,3.17
2019-01-27T03:08:37.459Z,2.90
2019-01-27T03:11:06.990Z,3.10
2019-01-27T03:13:36.467Z,3.10
2019-01-27T03:16:06.857Z,2.60
2019-01-27T03:18:36.343Z,2.93
2019-01-27T03:21:05.888Z,3.10
2019-01-27T03:23:35.478Z,2.87
2019-01-27T03:26:04.979Z,2.80
2019-01-27T03:28:34.479Z,3.10
2019-01-27T03:31:03.961Z,3.30
2019-01-27T03:33:33.474Z,2.77
2019-01-27T03:36:03.075Z,3.00
2019-01-27T03:38:32.600Z,2.77
2019-01-27T03:41:02.092Z,2.57
2019-01-27T03:43:31.566Z,2.70
2019-01-27T03:46:01.069Z,2.70
2019-01-27T03:48:30.626Z,2.70
2019-01-27T03:51:00.083Z,3.03
2019-01-27T03:53:29.567Z,2.67
2019-01-27T03:55:59.182Z,2.40
2019-01-27T03:58:28.678Z,2.20
2019-01-27T04:00:58.165Z,2.67
2019-01-27T04:03:27.674Z,2.70
2019-01-27T04:05:57.198Z,2.20
2019-01-27T04:08:26.707Z,2.37
2019-01-27T04:10:56.204Z,2.30
2019-01-27T04:13:25.696Z,2.40
2019-01-27T04:15:55.209Z,2.20
2019-01-27T04:18:24.691Z,2.20
2019-01-27T04:20:54.217Z,2.03
2019-01-27T04:23:23.696Z,2.00
2019-01-27T04:25:53.213Z,2.17
2019-01-27T04:28:22.717Z,2.30
2019-01-27T04:30:52.266Z,2.03
2019-01-27T04:33:21.788Z,2.47
2019-01-27T04:35:51.323Z,2.20
2019-01-27T04:38:20.814Z,2.53
2019-01-27T04:40:50.287Z,2.33
2019-01-27T04:43:19.815Z,2.50
2019-01-27T04:45:49.303Z,2.50
2019-01-27T04:48:18.825Z,2.67
2019-01-27T04:50:48.319Z,2.50
2019-01-27T04:53:17.855Z,2.70
2019-01-27T04:55:47.346Z,2.67
2019-01-27T04:58:16.858Z,2.53
2019-01-27T05:00:46.407Z,2.57
2019-01-27T05:03:26.448Z,2.43
2019-01-27T05:05:56.059Z,2.67
2019-01-27T05:08:25.602Z,2.20
2019-01-27T05:10:55.233Z,2.30
2019-01-27T05:13:24.722Z,2.60
2019-01-27T05:15:56.378Z,2.30
2019-01-27T05:18:25.895Z,2.20
2019-01-27T05:20:55.445Z,2.43
2019-01-27T05:23:24.953Z,2.10
2019-01-27T05:25:54.482Z,1.90
2019-01-27T05:28:24.012Z,2.00
2019-01-27T05:30:53.489Z,2.20
2019-01-27T05:33:22.997Z,1.80
2019-01-27T05:35:52.508Z,2.03
2019-01-27T05:38:22.047Z,2.17
2019-01-27T05:40:51.544Z,2.20
2019-01-27T05:43:21.033Z,2.00
2019-01-27T05:45:51.376Z,1.97
2019-01-27T05:48:20.872Z,1.90
2019-01-27T05:50:50.347Z,1.60
2019-01-27T05:53:19.846Z,1.70
2019-01-27T05:55:49.331Z,1.63
2019-01-27T05:58:18.832Z,1.50
2019-01-27T06:00:48.708Z,1.53
2019-01-27T06:03:18.265Z,1.30
2019-01-27T06:05:47.792Z,1.20
2019-01-27T06:08:17.345Z,1.33
2019-01-27T06:10:46.817Z,1.30
2019-01-27T06:13:16.265Z,1.30
2019-01-27T06:15:46.938Z,1.07
2019-01-27T06:18:16.454Z,0.90
2019-01-27T06:20:45.949Z,1.20
2019-01-27T06:23:15.507Z,1.00
2019-01-27T06:25:44.997Z,1.30
2019-01-27T06:28:14.493Z,0.80
2019-01-27T06:30:43.990Z,0.97
2019-01-27T06:33:44.476Z,0.90
2019-01-27T06:36:13.990Z,1.33
2019-01-27T06:38:43.514Z,0.97
2019-01-27T06:41:13.028Z,0.90
2019-01-27T06:43:42.508Z,1.23
2019-01-27T06:46:12.008Z,1.07
2019-01-27T06:48:41.623Z,0.83
2019-01-27T06:51:11.131Z,1.10
2019-01-27T06:53:40.639Z,0.83
2019-01-27T06:56:10.192Z,1.20
2019-01-27T06:58:57.452Z,0.80
2019-01-27T07:01:44.113Z,0.70
2019-01-27T07:04:35.610Z,0.90
2019-01-27T07:07:27.055Z,0.77
2019-01-27T07:10:21.691Z,0.90
2019-01-27T07:13:01.492Z,0.80
2019-01-27T07:16:01.731Z,1.00
2019-01-27T07:19:05.556Z,1.03
2019-01-27T07:21:54.710Z,0.70
2019-01-27T07:24:42.880Z,0.77
2019-01-27T07:27:34.428Z,1.17
2019-01-27T07:30:25.391Z,1.10
2019-01-27T07:33:29.097Z,0.90
2019-01-27T07:36:11.317Z,1.10
2019-01-27T07:38:59.781Z,0.97
2019-01-27T07:41:51.154Z,1.10
2019-01-27T07:44:48.350Z,0.70
2019-01-27T07:47:27.674Z,0.90
2019-01-27T07:50:12.627Z,0.87
2019-01-27T07:53:07.286Z,0.60
2019-01-27T07:56:07.890Z,0.80
2019-01-27T07:58:51.897Z,0.70
2019-01-27T08:01:40.342Z,0.90
2019-01-27T08:04:20.351Z,0.77
2019-01-27T08:07:00.507Z,0.90
2019-01-27T08:09:36.671Z,0.80
2019-01-27T08:12:31.144Z,0.70
2019-01-27T08:15:25.518Z,0.90
2019-01-27T08:18:08.928Z,0.90
2019-01-27T08:20:56.260Z,1.00
2019-01-27T08:23:44.677Z,0.80
2019-01-27T08:26:30.550Z,0.90
2019-01-27T08:29:07.746Z,1.00
2019-01-27T08:32:08.434Z,0.87
2019-01-27T08:35:09.117Z,0.80
2019-01-27T08:38:09.825Z,0.80
2019-01-27T08:40:51.775Z,0.67
2019-01-27T08:43:32.775Z,0.70
2019-01-27T08:46:10.619Z,0.67
2019-01-27T08:48:40.113Z,0.90
2019-01-27T08:51:09.650Z,0.87
2019-01-27T08:53:39.149Z,1.03
2019-01-27T08:56:08.654Z,0.70
2019-01-27T08:58:38.157Z,1.00
2019-01-27T09:01:29.338Z,0.73
2019-01-27T09:04:08.974Z,0.80
2019-01-27T09:07:03.223Z,0.80
2019-01-27T09:09:50.491Z,0.87
2019-01-27T09:12:38.894Z,0.67
2019-01-27T09:15:26.732Z,0.70
2019-01-27T09:18:15.157Z,0.60
2019-01-27T09:20:59.454Z,0.90
2019-01-27T09:23:47.397Z,0.93
2019-01-27T09:26:41.886Z,0.70
2019-01-27T09:29:36.085Z,0.80
2019-01-27T09:32:30.775Z,0.70
2019-01-27T09:35:19.167Z,0.80
2019-01-27T09:38:07.630Z,0.83
2019-01-27T09:41:02.194Z,0.67
2019-01-27T09:43:56.652Z,0.80
2019-01-27T09:46:57.167Z,0.60
2019-01-27T09:49:42.902Z,0.60
2019-01-27T09:52:27.522Z,0.50
2019-01-27T09:55:22.002Z,0.50
2019-01-27T09:58:13.290Z,0.47
2019-01-27T10:01:10.970Z,0.57
2019-01-27T10:04:05.566Z,0.50
2019-01-27T10:07:06.211Z,0.60
2019-01-27T10:09:53.336Z,0.50
2019-01-27T10:12:47.805Z,0.50
2019-01-27T10:15:34.946Z,0.60
2019-01-27T10:18:11.902Z,0.73
2019-01-27T10:21:12.731Z,0.53
2019-01-27T10:23:59.765Z,0.70
2019-01-27T10:26:51.783Z,0.63
2019-01-27T10:29:27.440Z,0.60
2019-01-27T10:32:09.035Z,0.77
2019-01-27T10:35:03.643Z,0.60
2019-01-27T10:37:47.387Z,0.60
2019-01-27T10:40:50.938Z,0.80
2019-01-27T10:43:28.663Z,0.90
2019-01-27T10:46:19.274Z,0.70
2019-01-27T10:49:10.683Z,1.00
2019-01-27T10:52:05.550Z,1.00
2019-01-27T10:54:57.150Z,1.07
2019-01-27T10:57:47.381Z,1.07
2019-01-27T11:00:46.941Z,1.27
2019-01-27T11:03:35.356Z,1.50
2019-01-27T11:06:23.267Z,1.50
2019-01-27T11:09:02.739Z,1.70
2019-01-27T11:12:03.226Z,1.50
2019-01-27T11:14:49.465Z,1.77
2019-01-27T11:17:36.438Z,1.70
2019-01-27T11:20:22.322Z,1.97
2019-01-27T11:23:13.863Z,2.03
2019-01-27T11:26:08.337Z,2.10
2019-01-27T11:28:59.801Z,2.10
2019-01-27T11:32:00.327Z,1.70
2019-01-27T11:34:51.515Z,2.07
2019-01-27T11:37:44.202Z,2.00
2019-01-27T11:40:24.579Z,2.20
2019-01-27T11:43:31.410Z,1.70
2019-01-27T11:46:24.558Z,2.40
2019-01-27T11:48:58.730Z,2.10
2019-01-27T11:51:53.406Z,2.00
2019-01-27T11:54:22.923Z,2.20
2019-01-27T11:56:52.457Z,2.30
2019-01-27T11:59:22.150Z,2.10
2019-01-27T12:01:51.682Z,2.20
2019-01-27T12:04:21.197Z,2.43
2019-01-27T12:06:50.672Z,2.30
2019-01-27T12:09:20.166Z,2.17
2019-01-27T12:11:49.686Z,2.20
2019-01-27T12:14:19.337Z,2.40
2019-01-27T12:16:48.850Z,2.17
2019-01-27T12:19:18.359Z,2.33
2019-01-27T12:21:48.250Z,2.33
2019-01-27T12:24:17.740Z,2.50
2019-01-27T12:26:47.222Z,2.30
2019-01-27T12:29:16.721Z,2.23
2019-01-27T12:31:46.377Z,2.50
2019-01-27T12:34:15.854Z,2.80
2019-01-27T12:36:45.324Z,2.60
2019-01-27T12:39:14.797Z,2.67
2019-01-27T12:41:44.847Z,2.83
2019-01-27T12:44:14.501Z,2.57
2019-01-27T12:46:44.199Z,2.53
2019-01-27T12:49:13.823Z,2.87
2019-01-27T12:51:44.729Z,2.83
2019-01-27T12:54:14.538Z,2.50
2019-01-27T12:56:44.009Z,2.47
2019-01-27T12:59:13.521Z,3.00
2019-01-27T13:01:42.986Z,2.50
2019-01-27T13:04:12.498Z,2.80
2019-01-27T13:06:42.014Z,2.50
2019-01-27T13:09:11.513Z,2.30
2019-01-27T13:11:40.976Z,2.53
2019-01-27T13:14:10.475Z,2.70
2019-01-27T13:16:39.966Z,2.43
2019-01-27T13:19:09.465Z,2.70
2019-01-27T13:21:38.967Z,2.63
2019-01-27T13:24:08.486Z,2.47
2019-01-27T13:26:38.033Z,2.40
2019-01-27T13:29:07.555Z,2.40
2019-01-27T13:31:37.062Z,2.43
2019-01-27T13:34:06.525Z,2.60
2019-01-27T13:36:36.062Z,2.63
2019-01-27T13:39:08.857Z,2.60
2019-01-27T13:41:38.422Z,3.00
2019-01-27T13:44:07.996Z,2.43
2019-01-27T13:46:37.672Z,2.80
2019-01-27T13:49:07.215Z,2.60
2019-01-27T13:51:36.712Z,2.70
2019-01-27T13:54:06.351Z,2.77
2019-01-27T13:56:35.855Z,2.57
2019-01-27T13:59:05.830Z,3.00
2019-01-27T14:01:35.307Z,2.90
2019-01-27T14:04:04.826Z,3.13
2019-01-27T14:06:34.299Z,3.40
2019-01-27T14:09:06.815Z,3.27
2019-01-27T14:11:36.519Z,3.33
2019-01-27T14:14:06.020Z,3.70
2019-01-27T14:16:35.538Z,3.97
2019-01-27T14:19:05.139Z,3.93
2019-01-27T14:21:34.619Z,4.17
2019-01-27T14:24:04.454Z,4.30
2019-01-27T14:26:33.933Z,4.90
2019-01-27T14:29:03.438Z,4.73
2019-01-27T14:31:32.913Z,4.97
2019-01-27T14:34:02.426Z,5.80
2019-01-27T14:36:31.926Z,5.93
2019-01-27T14:39:01.432Z,5.83
2019-01-27T14:41:30.923Z,6.20
2019-01-27T14:44:00.445Z,6.20
2019-01-27T14:46:29.920Z,6.03
2019-01-27T14:48:59.423Z,6.00
2019-01-27T14:51:29.046Z,5.80
2019-01-27T14:53:58.551Z,6.90
2019-01-27T14:56:28.074Z,6.70
2019-01-27T14:58:57.591Z,7.10
2019-01-27T15:01:27.049Z,6.87
2019-01-27T15:03:56.765Z,7.17
2019-01-27T15:06:26.260Z,7.57
2019-01-27T15:08:55.779Z,7.10
2019-01-27T15:11:25.313Z,7.67
2019-01-27T15:13:54.841Z,7.70
2019-01-27T15:16:24.343Z,7.77
2019-01-27T15:18:53.991Z,8.70
2019-01-27T15:21:26.116Z,8.57
2019-01-27T15:23:55.627Z,9.27
2019-01-27T15:26:25.133Z,9.73
2019-01-27T15:28:54.630Z,10.17
2019-01-27T15:31:24.140Z,9.10
2019-01-27T15:33:53.629Z,9.03
2019-01-27T15:36:23.179Z,8.60
2019-01-27T15:38:52.658Z,8.70
2019-01-27T15:41:22.162Z,8.60
2019-01-27T15:43:51.657Z,7.97
2019-01-27T15:46:21.172Z,7.47
2019-01-27T15:48:50.658Z,7.60
2019-01-27T15:51:20.281Z,7.60
2019-01-27T15:53:49.821Z,7.13
2019-01-27T15:56:19.338Z,6.90
2019-01-27T15:58:48.799Z,7.50
2019-01-27T16:01:18.299Z,8.43
2019-01-27T16:03:47.808Z,7.93
2019-01-27T16:06:17.484Z,8.57
2019-01-27T16:08:47.099Z,8.80
2019-01-27T16:11:16.617Z,10.03
2019-01-27T16:13:46.156Z,10.47
2019-01-27T16:16:15.616Z,11.53
2019-01-27T16:18:45.131Z,12.40
2019-01-27T16:21:14.642Z,12.50
2019-01-27T16:23:52.142Z,13.07
2019-01-27T16:26:21.751Z,14.17
2019-01-27T16:28:51.231Z,14.70
2019-01-27T16:31:54.722Z,15.73
2019-01-27T16:34:41.184Z,15.10
2019-01-27T16:37:10.746Z,14.77
2019-01-27T16:39:40.188Z,16.60
2019-01-27T16:42:09.696Z,15.60
2019-01-27T16:44:39.206Z,15.77
2019-01-27T16:47:08.709Z,15.83
2019-01-27T16:49:38.229Z,15.80
2019-01-27T16:52:07.763Z,14.90
2019-01-27T16:54:37.251Z,14.27
2019-01-27T16:57:06.745Z,14.33
2019-01-27T16:59:36.380Z,14.23
2019-01-27T17:02:06.183Z,13.30
2019-01-27T17:04:35.699Z,14.00
2019-01-27T17:07:05.394Z,14.07
2019-01-27T17:09:34.879Z,12.60
2019-01-27T17:12:04.501Z,12.30
2019-01-27T17:14:34.035Z,11.03
2019-01-27T17:17:03.670Z,7.83
2019-01-27T17:19:33.134Z,7.07
2019-01-27T17:22:02.704Z,5.33
2019-01-27T17:24:32.233Z,3.77
2019-01-27T17:27:01.757Z,3.17
2019-01-27T17:29:31.239Z,3.00
2019-01-27T17:32:00.776Z,2.97
2019-01-27T17:34:30.284Z,3.27
2019-01-27T17:36:59.765Z,3.10
2019-01-27T17:39:29.278Z,2.90
2019-01-27T17:41:58.787Z,3.00
2019-01-27T17:44:28.314Z,2.70
2019-01-27T17:46:57.863Z,2.57
2019-01-27T17:49:27.369Z,2.83
2019-01-27T17:51:56.867Z,2.37
2019-01-27T17:54:26.367Z,2.40
2019-01-27T17:57:05.431Z,2.87
2019-01-27T17:59:40.355Z,2.80
2019-01-27T18:02:28.788Z,2.27
2019-01-27T18:05:09.608Z,2.70
2019-01-27T18:07:56.923Z,3.83
2019-01-27T18:10:32.987Z,7.23
2019-01-27T18:13:17.855Z,5.00
2019-01-27T18:15:47.412Z,2.73
2019-01-27T18:18:16.894Z,2.70
2019-01-27T18:20:46.423Z,3.27
2019-01-27T18:23:15.936Z,2.97
2019-01-27T18:25:45.403Z,2.70
2019-01-27T18:28:15.520Z,2.80
2019-01-27T18:30:45.230Z,3.33
2019-01-27T18:33:15.052Z,3.30
2019-01-27T18:35:44.560Z,3.27
2019-01-27T18:38:14.095Z,2.90
2019-01-27T18:40:43.552Z,3.33
2019-01-27T18:43:13.060Z,3.57
2019-01-27T18:45:43.048Z,3.67
2019-01-27T18:48:12.579Z,4.23
2019-01-27T18:50:42.185Z,4.50
2019-01-27T18:53:19.925Z,4.10
2019-01-27T18:56:17.671Z,3.93
2019-01-27T18:58:59.696Z,3.90
2019-01-27T19:01:55.790Z,4.63
2019-01-27T19:04:56.654Z,4.40
2019-01-27T19:07:31.433Z,4.73
2019-01-27T19:10:11.415Z,4.07
2019-01-27T19:13:09.049Z,4.80
2019-01-27T19:15:55.134Z,4.63
2019-01-27T19:18:49.602Z,4.27
2019-01-27T19:21:43.836Z,3.53
2019-01-27T19:24:32.240Z,3.70
2019-01-27T19:27:19.852Z,3.87
2019-01-27T19:30:08.281Z,4.23
2019-01-27T19:32:55.371Z,3.87
2019-01-27T19:35:35.342Z,4.20
2019-01-27T19:38:22.632Z,4.07
2019-01-27T19:41:09.735Z,4.77
2019-01-27T19:43:58.167Z,6.03
2019-01-27T19:46:46.599Z,4.80
2019-01-27T19:49:36.862Z,4.90
2019-01-27T19:52:34.654Z,6.00
2019-01-27T19:55:27.047Z,6.63
2019-01-27T19:58:10.328Z,7.40
2019-01-27T20:00:57.498Z,7.57
2019-01-27T20:03:57.730Z,7.40
2019-01-27T20:06:33.335Z,7.20
2019-01-27T20:09:33.853Z,6.67
2019-01-27T20:12:11.463Z,5.90
2019-01-27T20:14:59.946Z,5.47
2019-01-27T20:18:03.442Z,5.47
2019-01-27T20:20:46.552Z,5.57
2019-01-27T20:23:40.742Z,4.43
2019-01-27T20:26:27.691Z,4.40
2019-01-27T20:29:14.630Z,4.30
2019-01-27T20:32:12.305Z,4.07
2019-01-27T20:34:52.002Z,3.90
2019-01-27T20:37:32.207Z,3.67
2019-01-27T20:40:26.827Z,4.07
2019-01-27T20:43:04.601Z,3.87
2019-01-27T20:45:55.959Z,4.47
2019-01-27T20:48:43.422Z,4.37
2019-01-27T20:51:34.635Z,5.30
2019-01-27T20:54:14.246Z,4.77
2019-01-27T20:57:05.572Z,4.13
2019-01-27T21:00:02.045Z,4.80
2019-01-27T21:02:47.270Z,5.00
2019-01-27T21:05:38.457Z,4.57
2019-01-27T21:08:26.871Z,4.77
2019-01-27T21:11:15.262Z,4.30
2019-01-27T21:13:56.343Z,4.40
2019-01-27T21:16:32.931Z,4.43
2019-01-27T21:19:18.938Z,4.63
2019-01-27T21:21:48.483Z,4.33
2019-01-27T21:24:17.977Z,4.70
2019-01-27T21:26:47.477Z,4.30
2019-01-27T21:29:16.966Z,5.30
2019-01-27T21:31:46.492Z,4.70
2019-01-27T21:34:15.978Z,5.07
2019-01-27T21:36:45.461Z,4.67
2019-01-27T21:39:14.918Z,5.67
2019-01-27T21:41:44.399Z,4.60
2019-01-27T21:44:13.918Z,5.43
2019-01-27T21:46:43.416Z,5.17
2019-01-27T21:49:12.946Z,5.03
2019-01-27T21:51:42.552Z,5.73
2019-01-27T21:54:12.070Z,5.33
2019-01-27T21:56:41.538Z,5.27
2019-01-27T21:59:11.060Z,5.57
2019-01-27T22:01:40.585Z,5.87
2019-01-27T22:04:10.114Z,6.70
2019-01-27T22:06:39.814Z,5.60
2019-01-27T22:09:10.134Z,5.97
2019-01-27T22:11:39.653Z,5.67
2019-01-27T22:14:09.171Z,6.27
2019-01-27T22:16:38.654Z,6.60
2019-01-27T22:19:08.291Z,7.20
2019-01-27T22:21:37.796Z,7.47
2019-01-27T22:24:07.307Z,7.43
2019-01-27T22:26:36.997Z,7.07
2019-01-27T22:29:06.626Z,8.27
2019-01-27T22:31:36.097Z,8.00
2019-01-27T22:34:06.196Z,8.00
2019-01-27T22:36:35.989Z,8.13
2019-01-27T22:39:08.658Z,9.23
2019-01-27T22:41:38.369Z,8.87
2019-01-27T22:44:07.822Z,8.60
2019-01-27T22:46:37.303Z,8.13
2019-01-27T22:49:06.843Z,8.93
2019-01-27T22:51:36.354Z,8.80
2019-01-27T22:54:05.931Z,8.87
2019-01-27T22:56:35.611Z,8.70
2019-01-27T22:59:05.086Z,10.10
2019-01-27T23:01:34.928Z,8.97
2019-01-27T23:04:04.803Z,9.13
2019-01-27T23:06:34.438Z,9.33
2019-01-27T23:09:06.964Z,10.50
2019-01-27T23:11:36.472Z,10.00
2019-01-27T23:14:06.391Z,10.30
2019-01-27T23:16:35.914Z,11.43
2019-01-27T23:19:05.425Z,10.60
2019-01-27T23:21:34.947Z,10.60
2019-01-27T23:24:04.675Z,12.17
2019-01-27T23:26:34.186Z,11.77
2019-01-27T23:29:03.669Z,12.07
2019-01-27T23:31:32.525Z,12.70
2019-01-27T23:34:02.030Z,13.30
2019-01-27T23:36:31.550Z,14.03
2019-01-27T23:39:01.053Z,16.03
2019-01-27T23:41:30.559Z,15.00
2019-01-27T23:44:00.071Z,15.77
2019-01-27T23:46:29.622Z,15.60
2019-01-27T23:48:59.086Z,16.53
2019-01-27T23:51:28.591Z,15.73
2019-01-27T23:53:58.078Z,16.60
2019-01-27T23:56:27.643Z,17.10
2019-01-27T23:58:57.158Z,17.07
